Hauptseite
METAR-TAF:

METAR-TAF

Flughäfen :

Flughafen Bacău

Bacau, Rumänien

Breite: 46-35N, Länge: 026-58E, Höhe: 184 m

Beobachtung

Neuester Wetterbericht von vor 10 Minuten, um 03:00 UTC
Wind 4 kt aus Nord
Temperatur 18°C
Luftfeuchtigkeit 88%
Luftdruck 1018 hPa
Sichtweite 10 km oder mehr
keine Wolken unter 1500 m und keine Kumulonimbus oder Gewitterwolken

METAR: LRBC 200300Z 01004KT CAVOK 18/16 Q1018

Zeit: 06:10 (03:10 UTC)

Prognose

Neuester Wetterbericht von vor 1 Stunde und 10 Minuten, um 02:00 UTC
Gültige Prognose vom 20 um 03 UTC bis 20 um 12 UTC
Wind 4 kt aus unterschiedlichen Richtungen
Sichtweite 10 km oder mehr
keine Wolken unter 1500 m und keine Kumulonimbus oder Gewitterwolken

TAF: LRBC 200200Z 2003/2012 VRB04KT CAVOK

Wetterbeobachtungen und Prognosen von mehr als 4000 Flughäfen (METAR und TAF Bericht).

Die verfügbaren Stationen werden durch gelbe und rote Markierungen auf der Karte dargestellt.

Führen Sie die Maus auf sie, um den Namen der Station zu sehen.

Darauf klicken, um die Beobachtung von Wetterbeobachtungen und Prognosen zu sehen.

Um die Karte zu ändern : klicken Sie auf den grünen Tasten mit einem schwarzen Kreuz Zum Vergrößern, auf den grünen Button mit einem Gedankenstrich zu verkleinern, oder auf die grünen Pfeile für benachbarte Karten.


METAR-TAF: